sensor_id;sensor_type;location;lat;lon;timestamp;P1;durP1;ratioP1;P2;durP2;ratioP2
52124;SDS011;38119;52.710;6.398;2022-09-09T00:01:47;7.82;;;4.30;;
52124;SDS011;38119;52.710;6.398;2022-09-09T00:04:34;8.30;;;3.80;;
52124;SDS011;38119;52.710;6.398;2022-09-09T00:13:05;7.40;;;5.00;;
52124;SDS011;38119;52.710;6.398;2022-09-09T00:21:17;7.55;;;4.53;;
52124;SDS011;38119;52.710;6.398;2022-09-09T00:23:48;6.65;;;4.63;;
52124;SDS011;38119;52.710;6.398;2022-09-09T00:31:35;8.55;;;4.72;;
52124;SDS011;38119;52.710;6.398;2022-09-09T00:34:21;8.98;;;5.10;;
52124;SDS011;38119;52.710;6.398;2022-09-09T00:36:50;8.93;;;4.88;;
52124;SDS011;38119;52.710;6.398;2022-09-09T00:39:39;8.30;;;4.63;;
52124;SDS011;38119;52.710;6.398;2022-09-09T00:42:17;8.35;;;4.57;;
52124;SDS011;38119;52.710;6.398;2022-09-09T00:55:14;7.00;;;4.22;;
52124;SDS011;38119;52.710;6.398;2022-09-09T00:57:46;10.55;;;4.50;;
52124;SDS011;38119;52.710;6.398;2022-09-09T01:00:20;7.43;;;4.45;;
52124;SDS011;38119;52.710;6.398;2022-09-09T01:14:20;7.97;;;4.22;;
52124;SDS011;38119;52.710;6.398;2022-09-09T01:16:58;6.07;;;3.97;;
52124;SDS011;38119;52.710;6.398;2022-09-09T01:28:25;9.45;;;4.05;;
52124;SDS011;38119;52.710;6.398;2022-09-09T01:30:53;6.70;;;3.72;;
52124;SDS011;38119;52.710;6.398;2022-09-09T01:33:19;7.25;;;3.90;;
52124;SDS011;38119;52.710;6.398;2022-09-09T01:38:18;7.45;;;3.90;;
52124;SDS011;38119;52.710;6.398;2022-09-09T01:40:44;6.50;;;3.92;;
52124;SDS011;38119;52.710;6.398;2022-09-09T01:43:09;7.47;;;3.90;;
52124;SDS011;38119;52.710;6.398;2022-09-09T01:45:35;8.00;;;3.60;;
52124;SDS011;38119;52.710;6.398;2022-09-09T01:48:03;7.95;;;3.72;;
52124;SDS011;38119;52.710;6.398;2022-09-09T01:50:29;8.30;;;3.75;;
52124;SDS011;38119;52.710;6.398;2022-09-09T01:52:57;6.80;;;3.90;;
52124;SDS011;38119;52.710;6.398;2022-09-09T01:56:11;8.20;;;3.55;;
52124;SDS011;38119;52.710;6.398;2022-09-09T01:58:45;6.85;;;3.78;;
52124;SDS011;38119;52.710;6.398;2022-09-09T02:03:52;6.57;;;3.75;;
52124;SDS011;38119;52.710;6.398;2022-09-09T02:06:25;7.13;;;3.42;;
52124;SDS011;38119;52.710;6.398;2022-09-09T02:08:56;7.13;;;4.03;;
52124;SDS011;38119;52.710;6.398;2022-09-09T02:11:25;9.35;;;4.13;;
52124;SDS011;38119;52.710;6.398;2022-09-09T02:14:02;7.38;;;4.15;;
52124;SDS011;38119;52.710;6.398;2022-09-09T02:16:32;7.00;;;3.75;;
52124;SDS011;38119;52.710;6.398;2022-09-09T02:21:33;8.73;;;3.85;;
52124;SDS011;38119;52.710;6.398;2022-09-09T02:24:00;9.85;;;4.45;;
52124;SDS011;38119;52.710;6.398;2022-09-09T02:26:30;6.38;;;3.85;;
52124;SDS011;38119;52.710;6.398;2022-09-09T02:28:59;5.90;;;3.85;;
52124;SDS011;38119;52.710;6.398;2022-09-09T02:31:28;8.75;;;3.70;;
52124;SDS011;38119;52.710;6.398;2022-09-09T02:33:55;7.15;;;3.95;;
52124;SDS011;38119;52.710;6.398;2022-09-09T02:36:24;7.68;;;3.75;;
52124;SDS011;38119;52.710;6.398;2022-09-09T02:38:54;7.32;;;4.28;;
52124;SDS011;38119;52.710;6.398;2022-09-09T02:41:23;5.78;;;3.85;;
52124;SDS011;38119;52.710;6.398;2022-09-09T02:43:56;8.23;;;4.45;;
52124;SDS011;38119;52.710;6.398;2022-09-09T02:46:24;7.72;;;3.95;;
52124;SDS011;38119;52.710;6.398;2022-09-09T02:49:13;6.97;;;4.03;;
52124;SDS011;38119;52.710;6.398;2022-09-09T02:51:57;10.93;;;4.28;;
52124;SDS011;38119;52.710;6.398;2022-09-09T02:57:03;6.28;;;4.35;;
52124;SDS011;38119;52.710;6.398;2022-09-09T02:59:50;7.93;;;5.10;;
52124;SDS011;38119;52.710;6.398;2022-09-09T03:02:17;8.43;;;5.00;;
52124;SDS011;38119;52.710;6.398;2022-09-09T03:04:43;6.57;;;4.80;;
52124;SDS011;38119;52.710;6.398;2022-09-09T03:07:09;7.53;;;5.05;;
52124;SDS011;38119;52.710;6.398;2022-09-09T03:09:37;8.00;;;5.18;;
52124;SDS011;38119;52.710;6.398;2022-09-09T03:12:02;7.72;;;5.32;;
52124;SDS011;38119;52.710;6.398;2022-09-09T03:14:32;9.65;;;5.28;;
52124;SDS011;38119;52.710;6.398;2022-09-09T03:16:57;9.80;;;5.50;;
52124;SDS011;38119;52.710;6.398;2022-09-09T03:19:25;7.15;;;5.28;;
52124;SDS011;38119;52.710;6.398;2022-09-09T03:21:52;8.50;;;5.32;;
52124;SDS011;38119;52.710;6.398;2022-09-09T03:24:18;8.60;;;5.13;;
52124;SDS011;38119;52.710;6.398;2022-09-09T03:26:44;7.68;;;4.90;;
52124;SDS011;38119;52.710;6.398;2022-09-09T03:29:11;9.02;;;5.38;;
52124;SDS011;38119;52.710;6.398;2022-09-09T03:31:40;7.93;;;5.30;;
52124;SDS011;38119;52.710;6.398;2022-09-09T03:34:07;8.25;;;4.78;;
52124;SDS011;38119;52.710;6.398;2022-09-09T03:36:33;9.45;;;4.60;;
52124;SDS011;38119;52.710;6.398;2022-09-09T03:38:58;10.23;;;5.30;;
52124;SDS011;38119;52.710;6.398;2022-09-09T03:41:25;7.53;;;4.55;;
52124;SDS011;38119;52.710;6.398;2022-09-09T03:43:51;7.53;;;4.65;;
52124;SDS011;38119;52.710;6.398;2022-09-09T03:46:20;8.23;;;4.50;;
52124;SDS011;38119;52.710;6.398;2022-09-09T03:48:47;7.75;;;4.25;;
52124;SDS011;38119;52.710;6.398;2022-09-09T03:51:13;9.88;;;5.22;;
52124;SDS011;38119;52.710;6.398;2022-09-09T03:53:40;8.55;;;5.47;;
52124;SDS011;38119;52.710;6.398;2022-09-09T03:56:06;9.30;;;5.68;;
52124;SDS011;38119;52.710;6.398;2022-09-09T03:58:33;7.57;;;5.40;;
52124;SDS011;38119;52.710;6.398;2022-09-09T04:01:06;8.65;;;5.82;;
52124;SDS011;38119;52.710;6.398;2022-09-09T04:03:39;11.07;;;5.97;;
52124;SDS011;38119;52.710;6.398;2022-09-09T04:06:06;7.43;;;5.85;;
52124;SDS011;38119;52.710;6.398;2022-09-09T04:08:34;8.88;;;5.80;;
52124;SDS011;38119;52.710;6.398;2022-09-09T04:11:01;10.57;;;6.40;;
52124;SDS011;38119;52.710;6.398;2022-09-09T04:13:30;10.23;;;6.75;;
52124;SDS011;38119;52.710;6.398;2022-09-09T04:15:56;9.88;;;6.35;;
52124;SDS011;38119;52.710;6.398;2022-09-09T04:18:24;14.70;;;7.53;;
52124;SDS011;38119;52.710;6.398;2022-09-09T04:20:51;10.52;;;6.88;;
52124;SDS011;38119;52.710;6.398;2022-09-09T04:23:18;10.18;;;6.55;;
52124;SDS011;38119;52.710;6.398;2022-09-09T04:25:45;10.75;;;6.60;;
52124;SDS011;38119;52.710;6.398;2022-09-09T04:28:13;9.38;;;6.60;;
52124;SDS011;38119;52.710;6.398;2022-09-09T04:30:40;10.68;;;6.60;;
52124;SDS011;38119;52.710;6.398;2022-09-09T04:33:07;9.82;;;6.57;;
52124;SDS011;38119;52.710;6.398;2022-09-09T04:35:32;9.68;;;6.47;;
52124;SDS011;38119;52.710;6.398;2022-09-09T04:37:58;11.38;;;6.60;;
52124;SDS011;38119;52.710;6.398;2022-09-09T04:40:24;8.50;;;6.50;;
52124;SDS011;38119;52.710;6.398;2022-09-09T04:42:50;8.40;;;5.88;;
52124;SDS011;38119;52.710;6.398;2022-09-09T04:45:16;10.05;;;5.80;;
52124;SDS011;38119;52.710;6.398;2022-09-09T04:47:41;12.38;;;6.25;;
52124;SDS011;38119;52.710;6.398;2022-09-09T04:50:07;9.15;;;6.20;;
52124;SDS011;38119;52.710;6.398;2022-09-09T04:52:36;8.45;;;6.20;;
52124;SDS011;38119;52.710;6.398;2022-09-09T04:55:02;10.32;;;6.10;;
52124;SDS011;38119;52.710;6.398;2022-09-09T04:57:28;10.95;;;6.35;;
52124;SDS011;38119;52.710;6.398;2022-09-09T04:59:57;9.32;;;5.90;;
52124;SDS011;38119;52.710;6.398;2022-09-09T05:02:25;9.38;;;6.10;;
52124;SDS011;38119;52.710;6.398;2022-09-09T05:04:51;9.50;;;6.38;;
52124;SDS011;38119;52.710;6.398;2022-09-09T05:07:16;10.52;;;6.63;;
52124;SDS011;38119;52.710;6.398;2022-09-09T05:09:42;10.45;;;6.78;;
52124;SDS011;38119;52.710;6.398;2022-09-09T05:12:08;9.45;;;6.57;;
52124;SDS011;38119;52.710;6.398;2022-09-09T05:14:33;12.90;;;7.15;;
52124;SDS011;38119;52.710;6.398;2022-09-09T05:17:02;10.82;;;7.20;;
52124;SDS011;38119;52.710;6.398;2022-09-09T05:19:28;10.70;;;6.85;;
52124;SDS011;38119;52.710;6.398;2022-09-09T05:21:53;10.27;;;6.63;;
52124;SDS011;38119;52.710;6.398;2022-09-09T05:24:19;11.45;;;7.25;;
52124;SDS011;38119;52.710;6.398;2022-09-09T05:26:45;9.35;;;6.82;;
52124;SDS011;38119;52.710;6.398;2022-09-09T05:29:10;11.52;;;6.50;;
52124;SDS011;38119;52.710;6.398;2022-09-09T05:31:36;9.35;;;6.75;;
52124;SDS011;38119;52.710;6.398;2022-09-09T05:34:01;9.50;;;6.97;;
52124;SDS011;38119;52.710;6.398;2022-09-09T05:36:27;10.88;;;6.15;;
52124;SDS011;38119;52.710;6.398;2022-09-09T05:38:53;10.45;;;6.82;;
52124;SDS011;38119;52.710;6.398;2022-09-09T05:41:18;10.27;;;7.20;;
52124;SDS011;38119;52.710;6.398;2022-09-09T05:43:45;8.80;;;6.78;;
52124;SDS011;38119;52.710;6.398;2022-09-09T05:46:21;9.45;;;6.13;;
52124;SDS011;38119;52.710;6.398;2022-09-09T05:48:49;10.98;;;7.15;;
52124;SDS011;38119;52.710;6.398;2022-09-09T05:51:20;8.27;;;6.60;;
52124;SDS011;38119;52.710;6.398;2022-09-09T05:53:51;14.73;;;7.07;;
52124;SDS011;38119;52.710;6.398;2022-09-09T05:56:18;8.82;;;6.45;;
52124;SDS011;38119;52.710;6.398;2022-09-09T05:58:47;7.88;;;6.10;;
52124;SDS011;38119;52.710;6.398;2022-09-09T06:01:18;8.95;;;6.45;;
52124;SDS011;38119;52.710;6.398;2022-09-09T06:03:46;7.82;;;5.53;;
52124;SDS011;38119;52.710;6.398;2022-09-09T06:06:17;9.52;;;5.88;;
52124;SDS011;38119;52.710;6.398;2022-09-09T06:08:45;10.05;;;6.20;;
52124;SDS011;38119;52.710;6.398;2022-09-09T06:11:13;10.77;;;6.57;;
52124;SDS011;38119;52.710;6.398;2022-09-09T06:13:59;7.90;;;5.65;;
52124;SDS011;38119;52.710;6.398;2022-09-09T06:16:26;10.52;;;5.95;;
52124;SDS011;38119;52.710;6.398;2022-09-09T06:18:53;10.98;;;6.13;;
52124;SDS011;38119;52.710;6.398;2022-09-09T06:21:23;10.68;;;5.80;;
52124;SDS011;38119;52.710;6.398;2022-09-09T06:23:55;8.48;;;6.00;;
52124;SDS011;38119;52.710;6.398;2022-09-09T06:26:22;10.07;;;6.15;;
52124;SDS011;38119;52.710;6.398;2022-09-09T06:28:49;8.20;;;5.45;;
52124;SDS011;38119;52.710;6.398;2022-09-09T06:31:18;10.38;;;5.78;;
52124;SDS011;38119;52.710;6.398;2022-09-09T06:33:46;11.55;;;5.97;;
52124;SDS011;38119;52.710;6.398;2022-09-09T06:36:21;8.95;;;6.15;;
52124;SDS011;38119;52.710;6.398;2022-09-09T06:38:48;7.85;;;5.90;;
52124;SDS011;38119;52.710;6.398;2022-09-09T06:41:15;9.32;;;5.80;;
52124;SDS011;38119;52.710;6.398;2022-09-09T06:43:43;9.43;;;5.63;;
52124;SDS011;38119;52.710;6.398;2022-09-09T06:46:13;9.27;;;5.68;;
52124;SDS011;38119;52.710;6.398;2022-09-09T06:48:40;7.10;;;4.90;;
52124;SDS011;38119;52.710;6.398;2022-09-09T06:51:10;12.38;;;5.90;;
52124;SDS011;38119;52.710;6.398;2022-09-09T06:53:45;7.88;;;5.63;;
52124;SDS011;38119;52.710;6.398;2022-09-09T06:58:43;10.88;;;5.63;;
52124;SDS011;38119;52.710;6.398;2022-09-09T07:01:14;11.77;;;5.40;;
52124;SDS011;38119;52.710;6.398;2022-09-09T07:03:42;7.60;;;5.40;;
52124;SDS011;38119;52.710;6.398;2022-09-09T07:06:29;8.90;;;5.22;;
52124;SDS011;38119;52.710;6.398;2022-09-09T07:08:59;12.68;;;5.88;;
52124;SDS011;38119;52.710;6.398;2022-09-09T07:11:30;9.65;;;6.20;;
52124;SDS011;38119;52.710;6.398;2022-09-09T07:13:57;11.95;;;5.35;;
52124;SDS011;38119;52.710;6.398;2022-09-09T07:16:24;11.65;;;5.15;;
52124;SDS011;38119;52.710;6.398;2022-09-09T07:18:51;9.70;;;5.07;;
52124;SDS011;38119;52.710;6.398;2022-09-09T07:21:18;8.13;;;5.13;;
52124;SDS011;38119;52.710;6.398;2022-09-09T07:23:45;10.15;;;5.82;;
52124;SDS011;38119;52.710;6.398;2022-09-09T07:26:12;7.72;;;4.85;;
52124;SDS011;38119;52.710;6.398;2022-09-09T07:28:39;10.60;;;5.63;;
52124;SDS011;38119;52.710;6.398;2022-09-09T07:31:06;10.18;;;5.90;;
52124;SDS011;38119;52.710;6.398;2022-09-09T07:33:38;11.95;;;5.43;;
52124;SDS011;38119;52.710;6.398;2022-09-09T07:38:42;9.75;;;5.13;;
52124;SDS011;38119;52.710;6.398;2022-09-09T07:41:11;9.23;;;5.30;;
52124;SDS011;38119;52.710;6.398;2022-09-09T07:43:39;8.63;;;5.75;;
52124;SDS011;38119;52.710;6.398;2022-09-09T07:46:06;8.23;;;5.00;;
52124;SDS011;38119;52.710;6.398;2022-09-09T07:48:33;10.20;;;4.80;;
52124;SDS011;38119;52.710;6.398;2022-09-09T07:51:18;8.63;;;4.80;;
52124;SDS011;38119;52.710;6.398;2022-09-09T07:53:47;8.93;;;4.93;;
52124;SDS011;38119;52.710;6.398;2022-09-09T07:56:16;11.68;;;5.07;;
52124;SDS011;38119;52.710;6.398;2022-09-09T07:58:46;10.43;;;4.65;;
52124;SDS011;38119;52.710;6.398;2022-09-09T08:01:17;8.63;;;4.88;;
52124;SDS011;38119;52.710;6.398;2022-09-09T08:03:45;11.13;;;5.00;;
52124;SDS011;38119;52.710;6.398;2022-09-09T08:06:12;9.93;;;4.80;;
52124;SDS011;38119;52.710;6.398;2022-09-09T08:08:39;9.23;;;4.10;;
52124;SDS011;38119;52.710;6.398;2022-09-09T08:11:10;8.10;;;4.72;;
52124;SDS011;38119;52.710;6.398;2022-09-09T08:13:37;10.38;;;4.43;;
52124;SDS011;38119;52.710;6.398;2022-09-09T08:16:08;8.63;;;3.78;;
52124;SDS011;38119;52.710;6.398;2022-09-09T08:18:41;12.23;;;4.28;;
52124;SDS011;38119;52.710;6.398;2022-09-09T08:21:11;8.85;;;4.03;;
52124;SDS011;38119;52.710;6.398;2022-09-09T08:23:41;12.35;;;4.50;;
52124;SDS011;38119;52.710;6.398;2022-09-09T08:28:38;10.30;;;4.28;;
52124;SDS011;38119;52.710;6.398;2022-09-09T08:31:06;10.70;;;4.40;;
52124;SDS011;38119;52.710;6.398;2022-09-09T08:33:37;10.75;;;4.30;;
52124;SDS011;38119;52.710;6.398;2022-09-09T08:36:03;10.02;;;4.22;;
52124;SDS011;38119;52.710;6.398;2022-09-09T08:38:31;8.70;;;4.03;;
52124;SDS011;38119;52.710;6.398;2022-09-09T08:41:04;7.90;;;4.45;;
52124;SDS011;38119;52.710;6.398;2022-09-09T08:43:35;11.20;;;4.00;;
52124;SDS011;38119;52.710;6.398;2022-09-09T08:46:04;9.85;;;4.22;;
52124;SDS011;38119;52.710;6.398;2022-09-09T08:51:10;13.00;;;4.35;;
52124;SDS011;38119;52.710;6.398;2022-09-09T08:53:38;12.05;;;4.63;;
52124;SDS011;38119;52.710;6.398;2022-09-09T08:56:10;12.35;;;4.25;;
52124;SDS011;38119;52.710;6.398;2022-09-09T08:58:50;10.60;;;4.15;;
52124;SDS011;38119;52.710;6.398;2022-09-09T09:01:35;12.85;;;4.45;;
52124;SDS011;38119;52.710;6.398;2022-09-09T09:07:27;9.02;;;3.92;;
52124;SDS011;38119;52.710;6.398;2022-09-09T09:12:57;10.20;;;3.88;;
52124;SDS011;38119;52.710;6.398;2022-09-09T09:15:28;11.55;;;4.35;;
52124;SDS011;38119;52.710;6.398;2022-09-09T09:18:01;13.30;;;3.85;;
52124;SDS011;38119;52.710;6.398;2022-09-09T09:20:41;9.38;;;3.60;;
52124;SDS011;38119;52.710;6.398;2022-09-09T09:23:25;8.55;;;3.28;;
52124;SDS011;38119;52.710;6.398;2022-09-09T09:25:58;10.77;;;3.03;;
52124;SDS011;38119;52.710;6.398;2022-09-09T09:28:27;7.40;;;2.83;;
52124;SDS011;38119;52.710;6.398;2022-09-09T09:30:58;11.15;;;2.85;;
52124;SDS011;38119;52.710;6.398;2022-09-09T09:33:42;10.48;;;3.05;;
52124;SDS011;38119;52.710;6.398;2022-09-09T09:36:24;9.75;;;3.53;;
52124;SDS011;38119;52.710;6.398;2022-09-09T09:39:29;7.90;;;2.88;;
52124;SDS011;38119;52.710;6.398;2022-09-09T09:42:07;11.70;;;3.15;;
52124;SDS011;38119;52.710;6.398;2022-09-09T09:44:39;10.13;;;2.95;;
52124;SDS011;38119;52.710;6.398;2022-09-09T09:47:15;9.63;;;2.80;;
52124;SDS011;38119;52.710;6.398;2022-09-09T09:49:59;8.50;;;2.33;;
52124;SDS011;38119;52.710;6.398;2022-09-09T09:52:26;11.43;;;2.92;;
52124;SDS011;38119;52.710;6.398;2022-09-09T09:54:54;9.63;;;3.13;;
52124;SDS011;38119;52.710;6.398;2022-09-09T09:57:26;8.65;;;2.67;;
52124;SDS011;38119;52.710;6.398;2022-09-09T10:00:04;11.43;;;3.35;;
52124;SDS011;38119;52.710;6.398;2022-09-09T10:02:42;6.35;;;2.53;;
52124;SDS011;38119;52.710;6.398;2022-09-09T10:05:13;7.85;;;2.50;;
52124;SDS011;38119;52.710;6.398;2022-09-09T10:07:43;12.73;;;3.10;;
52124;SDS011;38119;52.710;6.398;2022-09-09T10:10:19;8.80;;;2.38;;
52124;SDS011;38119;52.710;6.398;2022-09-09T10:13:00;8.38;;;2.80;;
52124;SDS011;38119;52.710;6.398;2022-09-09T10:15:42;6.38;;;2.50;;
52124;SDS011;38119;52.710;6.398;2022-09-09T10:34:58;8.13;;;2.40;;
52124;SDS011;38119;52.710;6.398;2022-09-09T10:40:43;6.50;;;2.20;;
52124;SDS011;38119;52.710;6.398;2022-09-09T10:43:23;7.32;;;2.10;;
52124;SDS011;38119;52.710;6.398;2022-09-09T10:57:08;6.53;;;2.08;;
52124;SDS011;38119;52.710;6.398;2022-09-09T10:59:47;7.28;;;2.25;;
52124;SDS011;38119;52.710;6.398;2022-09-09T11:02:26;5.97;;;2.35;;
52124;SDS011;38119;52.710;6.398;2022-09-09T11:05:02;8.15;;;2.10;;
52124;SDS011;38119;52.710;6.398;2022-09-09T11:07:40;10.43;;;2.78;;
52124;SDS011;38119;52.710;6.398;2022-09-09T11:13:04;7.82;;;2.28;;
52124;SDS011;38119;52.710;6.398;2022-09-09T11:15:37;6.53;;;2.17;;
52124;SDS011;38119;52.710;6.398;2022-09-09T11:18:08;8.30;;;2.70;;
52124;SDS011;38119;52.710;6.398;2022-09-09T11:20:39;5.05;;;1.80;;
52124;SDS011;38119;52.710;6.398;2022-09-09T11:23:10;7.80;;;2.70;;
52124;SDS011;38119;52.710;6.398;2022-09-09T11:28:09;11.25;;;2.80;;
52124;SDS011;38119;52.710;6.398;2022-09-09T11:36:01;6.88;;;2.38;;
52124;SDS011;38119;52.710;6.398;2022-09-09T11:38:45;8.32;;;2.20;;
52124;SDS011;38119;52.710;6.398;2022-09-09T11:41:18;7.90;;;2.63;;
52124;SDS011;38119;52.710;6.398;2022-09-09T11:46:17;8.38;;;2.28;;
52124;SDS011;38119;52.710;6.398;2022-09-09T11:49:01;6.78;;;2.53;;
52124;SDS011;38119;52.710;6.398;2022-09-09T11:51:29;4.70;;;2.47;;
52124;SDS011;38119;52.710;6.398;2022-09-09T11:56:54;8.25;;;2.35;;
52124;SDS011;38119;52.710;6.398;2022-09-09T11:59:25;5.70;;;2.20;;
52124;SDS011;38119;52.710;6.398;2022-09-09T12:06:54;5.72;;;2.05;;
52124;SDS011;38119;52.710;6.398;2022-09-09T12:14:56;7.38;;;2.60;;
52124;SDS011;38119;52.710;6.398;2022-09-09T12:17:25;6.97;;;2.15;;
52124;SDS011;38119;52.710;6.398;2022-09-09T12:20:03;6.53;;;1.88;;
52124;SDS011;38119;52.710;6.398;2022-09-09T12:22:57;10.57;;;2.70;;
52124;SDS011;38119;52.710;6.398;2022-09-09T12:25:33;5.97;;;1.90;;
52124;SDS011;38119;52.710;6.398;2022-09-09T12:30:49;6.43;;;1.52;;
52124;SDS011;38119;52.710;6.398;2022-09-09T12:33:48;5.30;;;1.63;;
52124;SDS011;38119;52.710;6.398;2022-09-09T12:36:18;6.22;;;2.05;;
52124;SDS011;38119;52.710;6.398;2022-09-09T12:38:48;6.35;;;1.73;;
52124;SDS011;38119;52.710;6.398;2022-09-09T12:41:18;6.95;;;2.00;;
52124;SDS011;38119;52.710;6.398;2022-09-09T12:43:44;5.70;;;1.95;;
52124;SDS011;38119;52.710;6.398;2022-09-09T12:46:12;5.15;;;1.80;;
52124;SDS011;38119;52.710;6.398;2022-09-09T12:48:48;5.57;;;1.75;;
52124;SDS011;38119;52.710;6.398;2022-09-09T12:51:27;6.82;;;1.70;;
52124;SDS011;38119;52.710;6.398;2022-09-09T12:53:55;4.55;;;1.70;;
52124;SDS011;38119;52.710;6.398;2022-09-09T12:56:25;5.85;;;1.98;;
52124;SDS011;38119;52.710;6.398;2022-09-09T12:58:54;6.05;;;1.73;;
52124;SDS011;38119;52.710;6.398;2022-09-09T13:03:54;5.22;;;1.50;;
52124;SDS011;38119;52.710;6.398;2022-09-09T13:06:25;4.47;;;1.65;;
52124;SDS011;38119;52.710;6.398;2022-09-09T13:08:53;5.85;;;1.70;;
52124;SDS011;38119;52.710;6.398;2022-09-09T13:11:27;7.40;;;1.60;;
52124;SDS011;38119;52.710;6.398;2022-09-09T13:13:54;7.43;;;1.90;;
52124;SDS011;38119;52.710;6.398;2022-09-09T13:16:28;5.60;;;1.50;;
52124;SDS011;38119;52.710;6.398;2022-09-09T13:18:58;6.32;;;1.75;;
52124;SDS011;38119;52.710;6.398;2022-09-09T13:21:38;5.55;;;1.10;;
52124;SDS011;38119;52.710;6.398;2022-09-09T13:24:05;5.07;;;1.20;;
52124;SDS011;38119;52.710;6.398;2022-09-09T13:26:53;2.22;;;1.10;;
52124;SDS011;38119;52.710;6.398;2022-09-09T13:29:21;4.75;;;1.20;;
52124;SDS011;38119;52.710;6.398;2022-09-09T13:31:47;3.35;;;1.00;;
52124;SDS011;38119;52.710;6.398;2022-09-09T13:34:27;2.08;;;0.93;;
52124;SDS011;38119;52.710;6.398;2022-09-09T13:37:04;3.60;;;1.30;;
52124;SDS011;38119;52.710;6.398;2022-09-09T13:39:35;8.80;;;1.90;;
52124;SDS011;38119;52.710;6.398;2022-09-09T13:42:02;4.90;;;1.73;;
52124;SDS011;38119;52.710;6.398;2022-09-09T13:44:30;6.40;;;2.53;;
52124;SDS011;38119;52.710;6.398;2022-09-09T13:47:01;6.32;;;1.90;;
52124;SDS011;38119;52.710;6.398;2022-09-09T13:49:29;4.05;;;1.90;;
52124;SDS011;38119;52.710;6.398;2022-09-09T13:52:11;5.88;;;1.70;;
52124;SDS011;38119;52.710;6.398;2022-09-09T13:54:42;5.50;;;2.00;;
52124;SDS011;38119;52.710;6.398;2022-09-09T13:57:49;5.10;;;1.75;;
52124;SDS011;38119;52.710;6.398;2022-09-09T14:00:00;6.38;;;1.75;;
52124;SDS011;38119;52.710;6.398;2022-09-09T14:02:26;4.50;;;1.80;;
52124;SDS011;38119;52.710;6.398;2022-09-09T14:04:52;2.78;;;1.40;;
52124;SDS011;38119;52.710;6.398;2022-09-09T14:07:20;5.03;;;1.60;;
52124;SDS011;38119;52.710;6.398;2022-09-09T14:09:46;3.30;;;1.65;;
52124;SDS011;38119;52.710;6.398;2022-09-09T14:12:15;5.65;;;1.70;;
52124;SDS011;38119;52.710;6.398;2022-09-09T14:14:41;4.38;;;1.67;;
52124;SDS011;38119;52.710;6.398;2022-09-09T14:17:07;3.42;;;1.45;;
52124;SDS011;38119;52.710;6.398;2022-09-09T14:19:33;4.05;;;1.92;;
52124;SDS011;38119;52.710;6.398;2022-09-09T14:21:59;5.75;;;1.50;;
52124;SDS011;38119;52.710;6.398;2022-09-09T14:24:26;4.60;;;1.70;;
52124;SDS011;38119;52.710;6.398;2022-09-09T14:26:52;5.00;;;1.70;;
52124;SDS011;38119;52.710;6.398;2022-09-09T14:29:19;4.13;;;1.42;;
52124;SDS011;38119;52.710;6.398;2022-09-09T14:31:44;6.28;;;1.70;;
52124;SDS011;38119;52.710;6.398;2022-09-09T14:34:10;3.83;;;1.88;;
52124;SDS011;38119;52.710;6.398;2022-09-09T14:36:36;3.38;;;1.48;;
52124;SDS011;38119;52.710;6.398;2022-09-09T14:39:03;4.15;;;1.50;;
52124;SDS011;38119;52.710;6.398;2022-09-09T14:41:29;3.97;;;1.55;;
52124;SDS011;38119;52.710;6.398;2022-09-09T14:43:55;4.28;;;1.45;;
52124;SDS011;38119;52.710;6.398;2022-09-09T14:46:21;4.10;;;1.48;;
52124;SDS011;38119;52.710;6.398;2022-09-09T14:48:47;3.47;;;1.52;;
52124;SDS011;38119;52.710;6.398;2022-09-09T14:51:21;4.40;;;1.60;;
52124;SDS011;38119;52.710;6.398;2022-09-09T14:53:50;4.72;;;1.60;;
52124;SDS011;38119;52.710;6.398;2022-09-09T14:56:19;3.50;;;1.55;;
52124;SDS011;38119;52.710;6.398;2022-09-09T14:58:48;2.30;;;1.30;;
52124;SDS011;38119;52.710;6.398;2022-09-09T15:01:15;4.15;;;1.77;;
52124;SDS011;38119;52.710;6.398;2022-09-09T15:03:42;4.38;;;1.60;;
52124;SDS011;38119;52.710;6.398;2022-09-09T15:06:13;3.22;;;1.40;;
52124;SDS011;38119;52.710;6.398;2022-09-09T15:08:43;3.85;;;1.40;;
52124;SDS011;38119;52.710;6.398;2022-09-09T15:11:10;3.70;;;1.30;;
52124;SDS011;38119;52.710;6.398;2022-09-09T15:13:38;1.80;;;1.10;;
52124;SDS011;38119;52.710;6.398;2022-09-09T15:16:12;6.40;;;1.88;;
52124;SDS011;38119;52.710;6.398;2022-09-09T15:18:39;4.38;;;1.60;;
52124;SDS011;38119;52.710;6.398;2022-09-09T15:21:10;4.47;;;1.40;;
52124;SDS011;38119;52.710;6.398;2022-09-09T15:23:36;4.07;;;1.52;;
52124;SDS011;38119;52.710;6.398;2022-09-09T15:26:03;2.88;;;1.70;;
52124;SDS011;38119;52.710;6.398;2022-09-09T15:28:29;3.90;;;1.58;;
52124;SDS011;38119;52.710;6.398;2022-09-09T15:30:57;3.03;;;1.42;;
52124;SDS011;38119;52.710;6.398;2022-09-09T15:33:23;3.88;;;1.70;;
52124;SDS011;38119;52.710;6.398;2022-09-09T15:35:48;2.92;;;1.75;;
52124;SDS011;38119;52.710;6.398;2022-09-09T15:38:15;3.63;;;1.88;;
52124;SDS011;38119;52.710;6.398;2022-09-09T15:40:41;3.22;;;1.70;;
52124;SDS011;38119;52.710;6.398;2022-09-09T15:43:08;5.68;;;2.30;;
52124;SDS011;38119;52.710;6.398;2022-09-09T15:45:35;4.10;;;1.70;;
52124;SDS011;38119;52.710;6.398;2022-09-09T15:48:01;4.85;;;1.65;;
52124;SDS011;38119;52.710;6.398;2022-09-09T15:50:28;3.80;;;1.88;;
52124;SDS011;38119;52.710;6.398;2022-09-09T15:52:56;4.75;;;1.70;;
52124;SDS011;38119;52.710;6.398;2022-09-09T15:55:22;4.47;;;1.85;;
52124;SDS011;38119;52.710;6.398;2022-09-09T15:57:49;5.75;;;1.70;;
52124;SDS011;38119;52.710;6.398;2022-09-09T16:00:17;5.22;;;1.80;;
52124;SDS011;38119;52.710;6.398;2022-09-09T16:02:43;5.47;;;1.92;;
52124;SDS011;38119;52.710;6.398;2022-09-09T16:05:08;4.57;;;1.88;;
52124;SDS011;38119;52.710;6.398;2022-09-09T16:07:34;2.97;;;1.85;;
52124;SDS011;38119;52.710;6.398;2022-09-09T16:10:01;5.80;;;2.08;;
52124;SDS011;38119;52.710;6.398;2022-09-09T16:12:27;5.63;;;2.30;;
52124;SDS011;38119;52.710;6.398;2022-09-09T16:14:53;5.55;;;2.33;;
52124;SDS011;38119;52.710;6.398;2022-09-09T16:17:18;6.72;;;2.50;;
52124;SDS011;38119;52.710;6.398;2022-09-09T16:19:45;4.13;;;2.03;;
52124;SDS011;38119;52.710;6.398;2022-09-09T16:22:11;5.00;;;2.22;;
52124;SDS011;38119;52.710;6.398;2022-09-09T16:24:37;5.47;;;2.20;;
52124;SDS011;38119;52.710;6.398;2022-09-09T16:27:03;5.80;;;1.92;;
52124;SDS011;38119;52.710;6.398;2022-09-09T16:29:29;5.78;;;2.00;;
52124;SDS011;38119;52.710;6.398;2022-09-09T16:31:54;5.13;;;1.80;;
52124;SDS011;38119;52.710;6.398;2022-09-09T16:34:21;4.88;;;1.77;;
52124;SDS011;38119;52.710;6.398;2022-09-09T16:36:47;5.18;;;1.83;;
52124;SDS011;38119;52.710;6.398;2022-09-09T16:39:17;5.15;;;2.00;;
52124;SDS011;38119;52.710;6.398;2022-09-09T16:41:45;6.05;;;2.28;;
52124;SDS011;38119;52.710;6.398;2022-09-09T16:44:12;6.50;;;2.33;;
52124;SDS011;38119;52.710;6.398;2022-09-09T16:46:41;8.68;;;2.25;;
52124;SDS011;38119;52.710;6.398;2022-09-09T16:49:08;7.20;;;2.10;;
52124;SDS011;38119;52.710;6.398;2022-09-09T16:51:37;3.95;;;1.85;;
52124;SDS011;38119;52.710;6.398;2022-09-09T16:54:05;5.43;;;1.90;;
52124;SDS011;38119;52.710;6.398;2022-09-09T16:56:33;4.82;;;1.80;;
52124;SDS011;38119;52.710;6.398;2022-09-09T16:59:02;3.15;;;1.52;;
52124;SDS011;38119;52.710;6.398;2022-09-09T17:01:34;5.18;;;1.90;;
52124;SDS011;38119;52.710;6.398;2022-09-09T17:06:36;4.05;;;1.90;;
52124;SDS011;38119;52.710;6.398;2022-09-09T17:09:04;2.92;;;2.00;;
52124;SDS011;38119;52.710;6.398;2022-09-09T17:11:35;5.30;;;2.08;;
52124;SDS011;38119;52.710;6.398;2022-09-09T17:14:03;4.97;;;1.85;;
52124;SDS011;38119;52.710;6.398;2022-09-09T17:16:29;3.60;;;2.03;;
52124;SDS011;38119;52.710;6.398;2022-09-09T17:18:56;3.28;;;1.95;;
52124;SDS011;38119;52.710;6.398;2022-09-09T17:21:24;4.75;;;2.17;;
52124;SDS011;38119;52.710;6.398;2022-09-09T17:23:51;4.25;;;2.05;;